x

Delaware Bay 26 Nm Southeast Of Cape May, Nj (44009) Wave Buoy

7:50am - Tue 22nd Aug 2017 All times are EDT. -4 hours from GMT.

  • Sig Wave height 2.3ft
  • Swell Direction
  • Peak Period 4s
  • Average Period 4s
  • Wind
    18mph, 20mph gusts
  • Sea Temp 78°f
  • Air Temp 79°f
  • Sea Pressure 1018.8mb
  • Delaware Bay 26 Nm Southeast Of Cape May, Nj
  • Delaware Bay 26 Nm Southeast Of Cape May, Nj

More Historic Weather Station data

Upgrade to MSW Pro to gain access to the past 30 days of data for over 8000 Wavebouys and Weather Stations around the globe.

Join

Comparision Forecast

View Surf forecast
   
Tue 08/22 7:50am 2.5ft 4s 4s 18 20 mph 1018.8mb 78f 79f
6:50am 2.5ft 4s 4s 16 20 mph 1019mb 78f 79f
5:50am 2.5ft 4s 4s 13 16 mph 1019.1mb 78f 78f
4:50am 2.5ft 4s 4s 13 16 mph 1019mb 78f 78f
3:50am 2.5ft 4s 4s 16 18 mph 1019.4mb 78f 78f
2:50am 2.5ft 4s 4s 16 18 mph 1019.8mb 78f 78f
1:50am 2.5ft 4s 4s 18 20 mph 1020.2mb 78f 78f
12:50am 2ft 8s 4s 18 20 mph 1020.6mb 78f 78f
Mon 08/21 11:50pm 1.6ft 14s 4s 16 18 mph 1021mb 78f 78f
10:50pm 1.6ft 9s 4s 13 16 mph 1021.3mb 78f 79f
9:50pm 2ft 4s 4s 13 13 mph 1021.4mb 78f 79f
8:50pm 2ft 4s 4s 13 16 mph 1021.4mb 79f 78f
7:50pm 2.5ft 3s 4s 13 16 mph 1021.2mb 79f 79f
6:50pm 2.5ft 4s 4s 16 18 mph 1021mb 79f 79f
5:50pm 2.5ft 3s 4s 18 20 mph 1021.5mb 79f 78f
4:50pm 2.5ft 3s 4s 16 20 mph 1021.8mb 79f 78f
3:50pm 2.5ft 3s 4s 18 20 mph 1022.2mb 79f 78f
2:50pm 2ft 8s 4s 18 20 mph 1022.7mb 79f 78f
1:50pm 1.6ft 7s 4s 16 18 mph 1023.7mb 79f 78f
12:50pm 1.6ft 8s 6s 11 13 mph 1023.9mb 79f 78f
11:50am 1.6ft 7s 6s 7 9 mph 1024.2mb 79f 78f
10:50am 1.3ft 7s 6s 9 9 mph 1023.9mb 79f 77f
8:50am 1.6ft 7s 6s 4 4 mph 1023.7mb 78f 77f
7:50am 1.6ft 7s 6s 2 4 mph 1023.8mb 78f 77f
6:50am 1.6ft 8s 6s 2 2 mph 1023.6mb 78f 77f
5:50am 1.6ft 9s 6s 2 4 mph 1023.1mb 78f 76f
4:50am 1.3ft 7s 6s 4 4 mph 1022.8mb 78f 76f
3:50am 1.3ft 8s 6s 4 4 mph 1022.5mb 78f 77f
2:50am 1.6ft 7s 6s 4 4 mph 1022.8mb 78f 77f
1:50am 1.3ft 8s 6s 7 9 mph 1023mb 78f 77f
12:50am 1.3ft 8s 6s 7 7 mph 1023mb 78f 77f
Sun 08/20 11:50pm 1.6ft 9s 6s 7 9 mph 1022.9mb 78f 78f
10:50pm 1.3ft 8s 5s 7 7 mph 1022.4mb 78f 77f
9:50pm 1.6ft 9s 5s 7 7 mph 1022.1mb 78f 78f
8:50pm 1.6ft 8s 5s 7 7 mph 1021.4mb 79f 78f
7:50pm 2ft 8s 5s 7 7 mph 1020.7mb 79f 78f
6:50pm 1.6ft 6s 5s 2 4 mph 1020.3mb 79f 80f
5:50pm 2ft 5s 5s 7 7 mph 1020mb 79f 79f
4:50pm 1.6ft 8s 5s 7 9 mph 1019.5mb 79f 78f
3:50pm 1.6ft 9s 4s 9 11 mph 1019.7mb 79f 78f
2:50pm 2ft 6s 4s 9 11 mph 1020.2mb 79f 76f
1:50pm 2ft 9s 4s 11 11 mph 1020.4mb 79f 76f
12:50pm 2ft 8s 4s 9 11 mph 1020.5mb 79f 75f
11:50am 2ft 7s 4s 7 9 mph 1020.2mb 78f 75f
10:50am 2ft 6s 4s 13 16 mph 1019.6mb 78f 75f
9:50am 2ft 3s 4s 11 13 mph 1019.2mb 78f 76f
8:50am 2.5ft 3s 4s 9 11 mph 1019mb 78f 76f
7:50am 2.5ft 6s 4s 13 16 mph 1018mb 78f 76f
6:50am 2.5ft 6s 4s 13 16 mph 1017.4mb 78f 76f
5:50am 2ft 6s 5s 11 13 mph 1016.7mb 78f 77f
4:50am 2.5ft 6s 5s 11 16 mph 1016.1mb 78f 78f
3:50am 2.5ft 6s 5s 9 9 mph 1015.6mb 78f 79f
2:50am 2.5ft 6s 5s 9 11 mph 1015.3mb 78f 79f
1:50am 2.5ft 7s 5s 9 9 mph 1015.4mb 78f 79f
12:50am 2.5ft 7s 5s 9 9 mph 1015.2mb 78f 79f
Sat 08/19 11:50pm 2.5ft 6s 5s 7 9 mph 1015mb 78f 79f
10:50pm 2.5ft 6s 5s 9 11 mph 1014.3mb 79f 80f
9:50pm 2.5ft 6s 5s 11 13 mph 1013.9mb 79f 80f
8:50pm 2.5ft 6s 5s 9 13 mph 1013.5mb 79f 80f
7:50pm 2.5ft 6s 5s 11 11 mph 1012.7mb 79f 80f
6:50pm 2ft 6s 5s 9 9 mph 1012.4mb 80f 80f
5:50pm 2ft 7s 5s 4 4 mph 1012.6mb 80f 80f
4:50pm 2ft 6s 5s  -  2 mph 1012.4mb 79f 81f
3:50pm 2ft 6s 5s 7 7 mph 1012.6mb 79f 80f
2:50pm 2.5ft 6s 5s 9 9 mph 1012.8mb 79f 79f
1:50pm 2.5ft 6s 5s 9 9 mph 1013.1mb 79f 78f
12:50pm 2.5ft 6s 5s 9 9 mph 1013.1mb 79f 78f
11:50am 2.5ft 6s 5s 7 9 mph 1013.1mb 78f 78f
10:50am 2.5ft 6s 5s 9 11 mph 1013mb 78f 78f
9:50am 3ft 6s 5s 7 7 mph 1012.7mb 78f 77f
8:50am 3ft 6s 5s 9 11 mph 1012.2mb 77f 77f
7:50am 2.5ft 6s 5s 9 11 mph 1011.6mb 77f 77f
6:50am 2.5ft 6s 5s 11 13 mph 1010.9mb 77f 77f
5:50am 3ft 5s 4s 9 11 mph 1010.6mb 77f 77f
4:50am 3ft 5s 4s 16 18 mph 1010.4mb 78f 77f
3:50am 2.5ft 6s 4s 13 16 mph 1010.8mb 77f 77f
2:50am 2.5ft 5s 4s 13 18 mph 1011.2mb 78f 77f
1:50am 2.5ft 5s 5s 13 16 mph 1010.7mb 78f 77f
12:50am 2.5ft 5s 4s 11 13 mph 1011mb 78f 76f
Fri 08/18 11:50pm 3.5ft 5s 4s 4 7 mph 1011.9mb 77f 75f
10:50pm 3.5ft 5s 4s 11 16 mph 1014mb 78f 76f
9:50pm 3.5ft 5s 4s 22 27 mph 1012.6mb 78f 78f
8:50pm 3.5ft 5s 4s 18 20 mph 1010.8mb 78f 79f
7:50pm 3.5ft 5s 4s 16 20 mph 1010mb 78f 79f
6:50pm 3.5ft 5s 4s 18 20 mph 1010.1mb 78f 80f
5:50pm 3.5ft 4s 4s 22 25 mph 1009.5mb 78f 80f
4:50pm 3.5ft 5s 4s 22 25 mph 1009.4mb 78f 80f
3:50pm 3.5ft 4s 4s 20 25 mph 1010.3mb 78f 79f
2:50pm 3.5ft 4s 4s 20 25 mph 1010.8mb 78f 79f
1:50pm 3.5ft 4s 4s 20 22 mph 1011.8mb 78f 79f